Time;durP1;ratioP1;P1;durP2;ratioP2;P2;SDS_P1;SDS_P2;PMS_P1;PMS_P2;Temp;Humidity;BMP_temperature;BMP_pressure;BME280_temperature;BME280_humidity;BME280_pressure;Samples;Min_cycle;Max_cycle;Signal;HPM_P1;HPM_P2
2023/05/14 00:02:18;;;;;;;19.33;11.25;;;11.90;99.90;;;;;;4900436;29;20087;-87
2023/05/14 00:04:44;;;;;;;19.05;10.48;;;12.20;99.90;;;;;;4900749;29;20048;-87
2023/05/14 00:07:12;;;;;;;20.90;10.98;;;12.00;99.90;;;;;;4899736;29;20048;-88
2023/05/14 00:09:47;;;;;;;21.98;12.23;;;12.20;99.90;;;;;;4900698;29;20040;-88
2023/05/14 00:12:16;;;;;;;21.73;10.85;;;12.20;99.90;;;;;;4898773;29;20040;-87
2023/05/14 00:14:48;;;;;;;21.83;11.52;;;11.20;99.90;;;;;;4900915;29;20413;-87
2023/05/14 00:17:29;;;;;;;20.17;11.18;;;12.10;99.90;;;;;;4900320;29;20127;-87
2023/05/14 00:19:58;;;;;;;19.27;11.30;;;11.20;99.90;;;;;;4902894;29;20401;-87
2023/05/14 00:25:58;;;;;;;20.65;11.02;;;11.10;99.90;;;;;;4899150;29;20057;-87
2023/05/14 00:28:33;;;;;;;19.63;11.73;;;12.00;99.90;;;;;;4897958;29;20124;-87
2023/05/14 00:34:40;;;;;;;24.10;11.50;;;11.10;99.90;;;;;;4906453;23;20287;-88
2023/05/14 00:37:35;;;;;;;20.33;10.77;;;11.00;99.90;;;;;;4865642;29;20061;-87
2023/05/14 00:40:11;;;;;;;19.60;10.70;;;11.00;99.90;;;;;;4874620;23;20083;-87
2023/05/14 00:43:07;;;;;;;24.73;10.93;;;11.00;99.90;;;;;;4916486;23;20056;-88
2023/05/14 00:45:40;;;;;;;22.42;11.52;;;11.00;99.90;;;;;;4900607;23;20412;-88
2023/05/14 00:48:09;;;;;;;19.50;10.65;;;11.80;99.90;;;;;;4897374;29;20493;-87
2023/05/14 00:53:09;;;;;;;17.90;10.50;;;11.00;99.90;;;;;;4866808;23;20046;-87
2023/05/14 00:56:07;;;;;;;18.83;10.43;;;10.90;99.90;;;;;;4860526;29;20057;-88
2023/05/14 00:58:35;;;;;;;22.05;11.82;;;10.90;99.90;;;;;;4861153;29;20532;-87
2023/05/14 01:01:04;;;;;;;22.67;11.23;;;12.10;99.90;;;;;;4876696;29;20038;-88
2023/05/14 01:03:36;;;;;;;21.83;10.68;;;11.40;99.90;;;;;;4860871;29;20090;-88
2023/05/14 01:06:33;;;;;;;22.33;11.05;;;10.40;99.90;;;;;;4861394;29;20045;-87
2023/05/14 01:12:31;;;;;;;21.55;11.65;;;10.80;99.90;;;;;;5255305;23;20057;-87
2023/05/14 01:18:23;;;;;;;19.23;11.57;;;10.80;99.90;;;;;;4868420;29;20107;-87
2023/05/14 01:20:52;;;;;;;21.40;11.98;;;11.80;99.90;;;;;;4890040;23;20493;-87
2023/05/14 01:23:23;;;;;;;23.52;11.85;;;11.40;99.90;;;;;;4862273;29;20046;-87
2023/05/14 01:25:52;;;;;;;22.58;12.23;;;11.90;99.90;;;;;;4860623;29;20487;-87
2023/05/14 01:28:51;;;;;;;22.30;12.07;;;10.80;99.90;;;;;;4868982;29;20037;-87
2023/05/14 01:32:08;;;;;;;27.60;12.13;;;10.80;99.90;;;;;;5148440;23;20490;-87
2023/05/14 01:34:38;;;;;;;24.33;12.25;;;10.50;99.90;;;;;;4861438;29;20136;-87
2023/05/14 01:37:10;;;;;;;22.58;12.50;;;10.80;99.90;;;;;;4859937;29;20046;-87
2023/05/14 01:39:37;;;;;;;21.23;12.48;;;11.80;99.90;;;;;;4861909;29;20105;-87
2023/05/14 01:42:25;;;;;;;23.80;13.27;;;11.00;99.90;;;;;;4860579;29;20438;-87
2023/05/14 01:45:22;;;;;;;23.73;12.35;;;10.60;99.90;;;;;;4903736;23;20121;-87
2023/05/14 01:47:48;;;;;;;23.88;12.95;;;11.00;99.90;;;;;;4897385;29;20053;-87
2023/05/14 01:50:17;;;;;;;23.27;13.05;;;11.30;99.90;;;;;;4896993;29;20446;-87
2023/05/14 01:52:52;;;;;;;26.77;13.68;;;10.50;99.90;;;;;;4896944;29;20497;-87
2023/05/14 01:55:20;;;;;;;25.45;13.57;;;10.10;99.90;;;;;;4902229;29;20040;-87
2023/05/14 01:57:52;;;;;;;26.40;13.93;;;11.00;99.90;;;;;;4913786;29;20048;-87
2023/05/14 02:00:22;;;;;;;24.42;12.65;;;10.60;99.90;;;;;;4896807;29;20469;-87
2023/05/14 02:02:47;;;;;;;24.23;13.32;;;10.40;99.90;;;;;;4898338;29;20420;-87
2023/05/14 02:05:13;;;;;;;24.50;14.13;;;10.70;99.90;;;;;;4900635;29;20055;-88
2023/05/14 02:08:37;;;;;;;24.27;13.57;;;10.40;99.90;;;;;;4910334;29;20048;-87
2023/05/14 02:11:06;;;;;;;22.65;13.30;;;10.40;99.90;;;;;;4891354;23;20053;-87
2023/05/14 02:13:38;;;;;;;28.55;14.02;;;11.50;99.90;;;;;;4858961;29;20055;-86
2023/05/14 02:18:47;;;;;;;25.67;13.20;;;10.40;99.90;;;;;;4840640;29;20045;-87
2023/05/14 02:21:23;;;;;;;24.75;14.43;;;10.40;99.90;;;;;;4840905;29;20123;-88
2023/05/14 02:23:50;;;;;;;29.20;15.35;;;11.40;99.90;;;;;;4842756;29;20038;-87
2023/05/14 02:26:21;;;;;;;25.42;14.35;;;11.10;99.90;;;;;;4841164;29;20150;-88
2023/05/14 02:28:52;;;;;;;28.38;14.13;;;11.40;99.90;;;;;;4842358;29;20038;-87
2023/05/14 02:31:21;;;;;;;30.92;15.23;;;9.80;99.90;;;;;;4840991;29;20114;-87
2023/05/14 02:33:47;;;;;;;26.10;14.70;;;11.30;99.90;;;;;;4840366;29;20056;-88
2023/05/14 02:36:15;;;;;;;26.10;14.23;;;10.20;99.90;;;;;;4842298;29;20461;-87
2023/05/14 02:38:44;;;;;;;24.73;14.82;;;10.20;99.90;;;;;;4841568;29;20394;-87
2023/05/14 02:41:15;;;;;;;25.88;15.05;;;11.10;99.90;;;;;;4841488;29;20046;-87
2023/05/14 02:43:45;;;;;;;30.48;14.60;;;10.20;99.90;;;;;;4841082;29;20053;-87
2023/05/14 02:46:17;;;;;;;26.08;14.63;;;10.20;99.90;;;;;;4841071;29;20082;-87
2023/05/14 02:48:49;;;;;;;24.70;14.43;;;11.10;99.90;;;;;;4842117;29;20073;-87
2023/05/14 02:51:24;;;;;;;24.60;13.70;;;11.00;99.90;;;;;;4842759;29;20060;-87
2023/05/14 02:53:55;;;;;;;27.45;14.27;;;11.00;99.90;;;;;;4842827;29;20061;-87
2023/05/14 02:56:45;;;;;;;27.75;15.45;;;11.30;99.90;;;;;;4843019;29;20082;-87
2023/05/14 02:59:35;;;;;;;23.67;14.15;;;10.60;99.90;;;;;;4894857;23;20091;-87
2023/05/14 03:02:06;;;;;;;28.60;14.85;;;9.70;99.90;;;;;;4898031;29;20127;-87
2023/05/14 03:04:34;;;;;;;27.77;14.82;;;10.00;99.90;;;;;;4890546;29;20192;-87
2023/05/14 03:07:25;;;;;;;25.00;14.10;;;10.00;99.90;;;;;;4936039;23;20131;-87
2023/05/14 03:09:59;;;;;;;27.88;14.45;;;9.80;99.90;;;;;;4896339;29;20408;-87
2023/05/14 03:12:24;;;;;;;26.67;14.48;;;9.40;99.90;;;;;;4895507;29;20041;-87
2023/05/14 03:14:53;;;;;;;25.88;14.65;;;9.90;99.90;;;;;;4897173;29;20044;-87
2023/05/14 03:17:26;;;;;;;29.17;15.00;;;9.90;99.90;;;;;;4967542;23;20103;-87
2023/05/14 03:19:55;;;;;;;26.95;14.77;;;10.60;99.90;;;;;;4896958;29;20060;-87
2023/05/14 03:26:02;;;;;;;28.30;14.77;;;9.80;99.90;;;;;;4908663;29;20035;-87
2023/05/14 03:28:34;;;;;;;28.33;14.57;;;10.30;99.90;;;;;;4901596;29;20048;-87
2023/05/14 03:31:03;;;;;;;26.40;14.70;;;10.80;99.90;;;;;;4897208;29;20048;-87
2023/05/14 03:33:31;;;;;;;28.23;15.32;;;9.80;99.90;;;;;;4896357;29;20053;-87
2023/05/14 03:36:15;;;;;;;27.13;14.35;;;10.00;99.90;;;;;;4898237;29;20044;-87
2023/05/14 03:38:51;;;;;;;28.55;14.48;;;11.00;99.90;;;;;;4909974;29;20047;-88
2023/05/14 03:41:21;;;;;;;28.30;15.40;;;10.80;99.90;;;;;;4898803;29;20044;-87
2023/05/14 03:43:50;;;;;;;30.88;15.13;;;10.20;99.90;;;;;;4895663;29;20100;-87
2023/05/14 03:46:21;;;;;;;24.42;14.20;;;9.80;99.90;;;;;;4895417;29;20061;-87
2023/05/14 03:49:12;;;;;;;28.05;14.43;;;10.20;99.90;;;;;;4909990;23;20088;-87
2023/05/14 03:51:37;;;;;;;31.17;15.23;;;9.70;99.90;;;;;;4896607;29;20045;-87
2023/05/14 03:54:09;;;;;;;27.38;14.38;;;9.70;99.90;;;;;;4897195;29;20041;-87
2023/05/14 03:56:37;;;;;;;31.25;15.40;;;10.90;99.90;;;;;;4896827;29;20045;-87
2023/05/14 03:59:03;;;;;;;25.65;13.55;;;10.70;99.90;;;;;;4895452;29;20047;-86
2023/05/14 04:01:29;;;;;;;27.23;14.57;;;10.40;99.90;;;;;;4894335;29;20489;-87
2023/05/14 04:03:58;;;;;;;29.92;14.57;;;11.00;99.90;;;;;;4894110;29;20052;-87
2023/05/14 04:06:30;;;;;;;26.33;15.18;;;9.70;99.90;;;;;;4873169;23;20061;-87
2023/05/14 04:09:05;;;;;;;;;;;;;;;;;;;;;
2023/05/14 04:11:52;;;;;;;29.98;15.02;;;10.30;99.90;;;;;;4860159;29;20057;-87
2023/05/14 04:14:22;;;;;;;29.75;16.00;;;11.00;99.90;;;;;;4859693;29;20052;-87
2023/05/14 04:17:03;;;;;;;26.70;15.02;;;10.90;99.90;;;;;;4860364;29;20052;-87
2023/05/14 04:19:32;;;;;;;27.15;15.50;;;9.80;99.90;;;;;;4872098;23;20140;-87
2023/05/14 04:22:07;;;;;;;30.95;15.45;;;9.80;99.90;;;;;;4896432;29;20049;-87
2023/05/14 04:27:05;;;;;;;27.13;16.35;;;9.90;99.90;;;;;;4925914;23;20116;-87
2023/05/14 04:29:37;;;;;;;27.83;15.45;;;9.90;99.90;;;;;;4900423;29;20053;-87
2023/05/14 04:32:06;;;;;;;25.50;14.25;;;9.90;99.90;;;;;;4898740;29;20394;-87
2023/05/14 04:37:08;;;;;;;25.48;14.85;;;10.00;99.90;;;;;;4944860;23;20413;-87
2023/05/14 04:39:40;;;;;;;26.33;14.57;;;11.10;99.90;;;;;;4982959;23;20473;-87
2023/05/14 04:42:09;;;;;;;25.45;15.15;;;10.80;99.90;;;;;;4899035;29;20059;-87
2023/05/14 04:44:36;;;;;;;27.17;14.57;;;11.20;99.90;;;;;;4899473;29;20049;-87
2023/05/14 04:47:05;;;;;;;25.60;14.48;;;9.80;99.90;;;;;;4898093;29;20087;-87
2023/05/14 04:49:34;;;;;;;28.02;14.73;;;10.10;99.90;;;;;;4898597;29;20044;-87
2023/05/14 04:52:09;;;;;;;25.50;14.07;;;11.20;99.90;;;;;;4898573;29;20044;-87
2023/05/14 04:54:35;;;;;;;25.73;14.70;;;10.40;99.90;;;;;;4898742;29;20044;-87
2023/05/14 04:57:09;;;;;;;26.67;14.65;;;10.70;99.90;;;;;;4899813;29;20048;-87
2023/05/14 05:03:05;;;;;;;25.60;14.50;;;10.40;99.90;;;;;;4906003;23;20348;-87
2023/05/14 05:06:40;;;;;;;27.00;14.82;;;10.50;99.90;;;;;;4899943;29;20053;-88
2023/05/14 05:09:07;;;;;;;27.13;15.35;;;10.10;99.90;;;;;;4908534;29;20390;-87
2023/05/14 05:12:07;;;;;;;25.10;14.93;;;11.90;99.90;;;;;;4899026;29;20108;-87
2023/05/14 05:14:36;;;;;;;26.13;14.25;;;10.70;99.90;;;;;;4899544;29;20119;-86
2023/05/14 05:19:56;;;;;;;29.02;14.82;;;11.90;99.90;;;;;;4898422;29;20056;-87
2023/05/14 05:22:22;;;;;;;25.00;14.77;;;11.40;99.90;;;;;;4897055;23;20049;-87
2023/05/14 05:24:48;;;;;;;25.67;14.77;;;11.40;99.90;;;;;;4863074;29;20057;-87
2023/05/14 05:27:20;;;;;;;33.28;17.08;;;10.80;99.90;;;;;;4906124;23;20059;-87
2023/05/14 05:29:49;;;;;;;27.75;15.38;;;11.30;99.90;;;;;;5015009;23;20104;-87
2023/05/14 05:32:17;;;;;;;24.58;14.30;;;11.10;99.90;;;;;;4955337;23;20073;-88
2023/05/14 05:34:50;;;;;;;24.48;14.65;;;11.70;99.90;;;;;;4860794;29;20037;-87
2023/05/14 05:44:07;;;;;;;25.48;15.20;;;11.10;99.90;;;;;;5062138;23;20051;-84
2023/05/14 05:46:43;;;;;;;26.20;15.00;;;11.80;99.90;;;;;;4897390;29;20084;-83
2023/05/14 05:49:24;;;;;;;27.00;13.95;;;11.50;99.90;;;;;;4897639;29;20040;-83
2023/05/14 05:51:50;;;;;;;23.13;14.52;;;12.50;99.90;;;;;;4949121;23;20464;-83
2023/05/14 05:54:16;;;;;;;24.10;14.52;;;12.20;99.90;;;;;;4896976;29;20068;-83
2023/05/14 05:56:44;;;;;;;23.70;14.55;;;11.40;99.90;;;;;;4897830;29;20057;-83
2023/05/14 05:59:09;;;;;;;22.40;14.23;;;12.10;99.90;;;;;;4896590;29;20045;-83
2023/05/14 06:01:44;;;;;;;24.77;13.68;;;11.60;99.90;;;;;;4896917;29;20108;-83
2023/05/14 06:04:12;;;;;;;24.80;13.90;;;11.70;99.90;;;;;;4896468;29;20117;-82
2023/05/14 06:06:38;;;;;;;25.52;14.07;;;12.50;99.90;;;;;;4897048;29;20040;-85
2023/05/14 06:09:15;;;;;;;24.33;14.60;;;12.90;99.90;;;;;;4897256;29;20080;-83
2023/05/14 06:14:22;;;;;;;24.88;14.27;;;11.80;99.90;;;;;;5218727;23;20420;-83
2023/05/14 06:16:47;;;;;;;23.27;13.50;;;12.80;99.90;;;;;;4897194;29;20045;-85
2023/05/14 06:19:13;;;;;;;23.27;13.40;;;11.90;99.90;;;;;;4896965;29;20045;-85
2023/05/14 06:21:50;;;;;;;25.88;13.50;;;12.40;99.90;;;;;;4897850;29;20048;-85
2023/05/14 06:24:19;;;;;;;23.55;14.40;;;11.90;99.90;;;;;;4897041;29;20052;-84
2023/05/14 06:26:53;;;;;;;22.00;13.32;;;12.00;99.90;;;;;;4895300;29;20052;-85
2023/05/14 06:32:50;;;;;;;23.90;14.32;;;12.10;99.90;;;;;;5285457;23;20019;-85
2023/05/14 06:35:21;;;;;;;23.05;14.38;;;12.70;99.90;;;;;;4859326;29;20046;-85
2023/05/14 06:37:47;;;;;;;22.95;14.40;;;12.20;99.90;;;;;;4859941;29;20482;-84
2023/05/14 06:40:40;;;;;;;25.42;14.82;;;12.90;99.90;;;;;;4863573;29;20052;-85
2023/05/14 06:43:09;;;;;;;24.58;13.80;;;12.40;99.90;;;;;;4857243;29;20037;-86
2023/05/14 06:45:37;;;;;;;21.60;13.63;;;13.50;99.90;;;;;;4860737;29;20086;-85
2023/05/14 06:48:12;;;;;;;21.80;12.95;;;12.50;99.90;;;;;;4858206;29;20370;-85
2023/05/14 06:50:48;;;;;;;21.10;13.52;;;13.40;99.90;;;;;;4858785;29;20608;-85
2023/05/14 06:53:20;;;;;;;21.58;13.38;;;12.60;99.90;;;;;;4858863;29;20049;-85
2023/05/14 06:55:51;;;;;;;27.98;13.60;;;12.70;99.90;;;;;;4860005;29;20085;-82
2023/05/14 06:58:20;;;;;;;20.40;13.20;;;13.60;99.90;;;;;;4856345;29;20049;-83
2023/05/14 07:04:05;;;;;;;25.05;13.55;;;13.60;99.90;;;;;;4857522;29;20057;-84
2023/05/14 07:06:34;;;;;;;24.20;13.13;;;13.20;99.90;;;;;;4858282;29;20045;-84
2023/05/14 07:09:06;;;;;;;20.05;13.40;;;13.40;99.90;;;;;;4857364;29;20038;-84
2023/05/14 07:11:44;;;;;;;22.90;13.68;;;14.10;99.90;;;;;;4860123;29;20050;-84
2023/05/14 07:14:25;;;;;;;22.13;13.70;;;13.30;99.90;;;;;;4887567;23;20064;-84
2023/05/14 07:19:39;;;;;;;21.25;13.45;;;13.80;99.90;;;;;;4888857;23;20053;-83
2023/05/14 07:22:13;;;;;;;21.52;12.95;;;15.10;99.90;;;;;;4887741;29;20043;-84
2023/05/14 07:24:42;;;;;;;24.75;13.88;;;14.20;99.90;;;;;;4885476;29;20045;-84
2023/05/14 07:27:15;;;;;;;21.17;13.38;;;15.20;99.90;;;;;;4884992;29;20045;-84
2023/05/14 07:29:44;;;;;;;20.70;13.52;;;15.60;99.90;;;;;;4895051;29;20103;-84
2023/05/14 07:32:24;;;;;;;21.10;13.40;;;15.70;99.90;;;;;;5143339;23;20053;-84
2023/05/14 07:34:59;;;;;;;19.50;12.77;;;15.10;99.90;;;;;;4877154;29;20052;-83
2023/05/14 07:37:25;;;;;;;21.63;13.02;;;15.20;99.90;;;;;;4876183;29;20060;-84
2023/05/14 07:39:56;;;;;;;18.65;12.50;;;16.30;99.90;;;;;;4877173;29;20045;-84
2023/05/14 07:42:25;;;;;;;19.75;13.45;;;15.50;99.90;;;;;;4876061;29;20049;-85
2023/05/14 07:44:57;;;;;;;19.77;13.25;;;15.70;99.90;;;;;;4877986;29;20378;-85
2023/05/14 07:47:29;;;;;;;20.58;13.43;;;15.80;99.90;;;;;;4875004;29;20619;-84
2023/05/14 07:49:58;;;;;;;21.58;14.05;;;16.60;99.90;;;;;;4875879;29;20128;-85
2023/05/14 07:56:05;;;;;;;22.58;13.75;;;15.70;99.90;;;;;;4881654;29;20077;-85
2023/05/14 07:58:36;;;;;;;19.48;13.30;;;16.10;99.90;;;;;;4881306;29;20413;-84
2023/05/14 08:01:43;;;;;;;20.63;13.45;;;16.70;99.90;;;;;;4882280;29;20137;-84
2023/05/14 08:04:11;;;;;;;20.17;12.55;;;16.20;99.90;;;;;;4881417;29;20056;-84
2023/05/14 08:06:57;;;;;;;18.33;12.75;;;17.20;99.90;;;;;;4880413;29;20387;-83
2023/05/14 08:09:28;;;;;;;18.42;12.82;;;16.40;99.90;;;;;;4879763;23;20077;-83
2023/05/14 08:19:40;;;;;;;17.63;12.23;;;16.40;99.90;;;;;;4893275;23;20118;-84
2023/05/14 08:25:33;;;;;;;17.60;12.07;;;17.00;99.90;;;;;;4885620;29;20523;-85
2023/05/14 08:28:04;;;;;;;17.25;12.10;;;17.00;99.90;;;;;;4882004;29;20129;-84
2023/05/14 08:30:30;;;;;;;16.38;12.15;;;17.00;99.90;;;;;;4897445;29;20052;-84
2023/05/14 08:33:02;;;;;;;17.55;11.40;;;17.20;99.90;;;;;;4904550;23;20059;-84
2023/05/14 08:35:43;;;;;;;15.90;12.18;;;17.10;99.90;;;;;;4897420;29;20048;-84
2023/05/14 08:38:14;;;;;;;16.52;10.88;;;17.50;99.90;;;;;;4899546;29;20523;-86
2023/05/14 08:40:57;;;;;;;16.30;10.90;;;17.10;99.90;;;;;;4902122;29;20373;-86
2023/05/14 08:43:40;;;;;;;17.57;10.90;;;17.10;99.90;;;;;;4917107;29;20074;-86
2023/05/14 08:46:07;;;;;;;16.10;10.80;;;18.00;99.90;;;;;;4904096;29;20292;-86
2023/05/14 08:48:33;;;;;;;15.52;10.50;;;18.00;99.90;;;;;;4907689;23;20071;-86
2023/05/14 08:51:06;;;;;;;15.82;10.30;;;18.10;99.90;;;;;;4901852;29;20052;-85
2023/05/14 08:53:33;;;;;;;15.70;10.60;;;17.10;99.90;;;;;;4899509;29;20057;-83
2023/05/14 08:56:31;;;;;;;16.90;10.30;;;17.70;99.90;;;;;;4900368;29;20108;-83
2023/05/14 08:59:06;;;;;;;16.95;10.13;;;17.10;99.90;;;;;;4884969;29;20492;-83
2023/05/14 09:02:13;;;;;;;15.80;10.13;;;17.20;99.90;;;;;;4897533;29;20077;-83
2023/05/14 09:04:46;;;;;;;13.93;10.13;;;17.30;99.90;;;;;;4898236;29;20105;-83
2023/05/14 09:07:18;;;;;;;16.85;10.32;;;17.50;99.90;;;;;;4896164;29;20044;-83
2023/05/14 09:09:47;;;;;;;15.10;9.85;;;17.70;99.90;;;;;;4898077;29;20527;-84
2023/05/14 09:12:22;;;;;;;15.80;10.20;;;17.90;99.90;;;;;;4888340;29;20040;-83
2023/05/14 09:14:49;;;;;;;15.75;9.75;;;19.10;99.90;;;;;;4896926;29;20378;-83
2023/05/14 09:17:20;;;;;;;13.85;9.68;;;18.70;99.90;;;;;;4897072;29;20506;-83
2023/05/14 09:24:28;;;;;;;17.33;9.85;;;19.00;99.90;;;;;;4842110;29;20049;-83
2023/05/14 09:28:00;;;;;;;13.63;8.90;;;19.20;99.90;;;;;;4857492;29;20065;-85
2023/05/14 09:30:30;;;;;;;14.02;9.45;;;19.20;99.90;;;;;;4861178;29;20178;-86
2023/05/14 09:32:56;;;;;;;14.00;9.32;;;19.50;99.90;;;;;;4884854;23;20059;-87
2023/05/14 09:35:24;;;;;;;15.13;9.93;;;19.80;99.90;;;;;;4896797;29;20040;-87
2023/05/14 09:37:55;;;;;;;13.68;9.07;;;20.00;99.90;;;;;;4912112;29;20044;-86
2023/05/14 09:40:24;;;;;;;15.25;9.82;;;20.00;99.90;;;;;;4905161;29;20059;-86
2023/05/14 09:42:53;;;;;;;13.13;9.27;;;20.20;99.90;;;;;;4897956;29;20063;-87
2023/05/14 09:45:24;;;;;;;13.32;9.60;;;20.30;99.90;;;;;;4896992;29;20394;-86
2023/05/14 09:47:53;;;;;;;14.75;9.68;;;20.40;99.90;;;;;;4920452;23;20502;-87
2023/05/14 09:51:04;;;;;;;12.30;8.60;;;20.50;99.90;;;;;;4860313;29;20493;-86
2023/05/14 09:54:31;;;;;;;13.43;8.80;;;20.70;99.90;;;;;;4939559;23;20056;-86
2023/05/14 09:58:00;;;;;;;13.35;9.07;;;20.50;99.90;;;;;;4895382;29;20500;-86
2023/05/14 10:00:34;;;;;;;12.80;8.10;;;20.70;99.90;;;;;;4896736;29;20052;-86
2023/05/14 10:03:19;;;;;;;14.02;9.30;;;20.90;99.90;;;;;;4898056;29;20045;-86
2023/05/14 10:05:52;;;;;;;13.40;9.00;;;20.90;99.90;;;;;;4898366;29;20446;-86
2023/05/14 10:08:52;;;;;;;14.88;8.35;;;21.00;99.90;;;;;;4890936;29;20037;-86
2023/05/14 10:15:20;;;;;;;13.10;8.85;;;21.00;99.90;;;;;;4897728;29;20043;-87
2023/05/14 10:17:57;;;;;;;13.25;9.32;;;21.30;99.90;;;;;;4896335;29;20609;-87
2023/05/14 10:20:37;;;;;;;14.85;9.00;;;21.60;99.90;;;;;;4900969;29;20045;-87
2023/05/14 10:23:03;;;;;;;15.98;9.02;;;21.90;99.90;;;;;;4894716;29;20060;-87
2023/05/14 10:25:51;;;;;;;15.90;9.32;;;22.10;99.90;;;;;;4886994;29;20049;-86
2023/05/14 10:28:29;;;;;;;13.82;8.93;;;22.10;99.80;;;;;;4889221;23;20111;-86
2023/05/14 10:31:07;;;;;;;13.05;8.88;;;22.20;99.70;;;;;;4896375;29;20492;-86
2023/05/14 10:34:33;;;;;;;14.60;9.25;;;22.20;99.90;;;;;;4896610;29;20079;-86
2023/05/14 10:42:53;;;;;;;13.95;8.73;;;21.90;98.50;;;;;;4856290;29;20135;-86
2023/05/14 10:45:54;;;;;;;;;;;;;;;;;;;;;
2023/05/14 10:48:55;;;;;;;13.48;8.70;;;22.30;99.90;;;;;;4803816;23;20051;-85
2023/05/14 10:58:00;;;;;;;14.70;8.48;;;23.20;99.60;;;;;;5189292;23;20412;-86
2023/05/14 11:04:23;;;;;;;12.23;7.80;;;23.50;98.00;;;;;;4897049;29;20116;-86
2023/05/14 11:10:34;;;;;;;14.85;9.15;;;23.60;98.00;;;;;;4838763;29;20498;-85
2023/05/14 11:13:33;;;;;;;13.48;8.93;;;23.60;96.80;;;;;;4839611;29;20098;-85
2023/05/14 11:16:02;;;;;;;14.85;8.32;;;23.60;96.00;;;;;;4847317;29;20056;-84
2023/05/14 11:18:35;;;;;;;11.93;8.65;;;23.60;97.50;;;;;;4861048;29;20067;-84
2023/05/14 11:24:00;;;;;;;13.75;9.13;;;23.50;97.90;;;;;;4869583;29;20489;-85
2023/05/14 11:30:39;;;;;;;12.98;7.40;;;23.50;96.60;;;;;;5233615;23;20084;-86
2023/05/14 11:33:05;;;;;;;11.07;7.68;;;23.10;97.30;;;;;;4889320;29;20527;-88
2023/05/14 11:35:44;;;;;;;11.35;7.55;;;23.40;98.20;;;;;;4889243;29;20037;-88
2023/05/14 11:38:18;;;;;;;13.88;8.13;;;23.50;95.50;;;;;;4890455;29;20147;-89
2023/05/14 11:41:00;;;;;;;12.23;7.65;;;23.40;96.30;;;;;;4891415;29;20056;-86
2023/05/14 11:43:35;;;;;;;14.25;7.78;;;23.50;97.10;;;;;;4890370;29;20049;-82
2023/05/14 11:46:01;;;;;;;12.18;7.28;;;23.60;97.00;;;;;;4892981;29;20072;-85
2023/05/14 11:48:35;;;;;;;12.55;7.43;;;23.70;97.30;;;;;;4893090;29;20489;-85
2023/05/14 11:51:28;;;;;;;13.35;8.13;;;24.30;97.00;;;;;;4894716;29;20045;-86
2023/05/14 11:54:02;;;;;;;12.32;7.97;;;23.60;96.60;;;;;;4888149;29;20058;-85
2023/05/14 11:56:31;;;;;;;12.43;7.80;;;23.50;95.90;;;;;;4875021;29;20090;-85
2023/05/14 11:59:16;;;;;;;13.50;8.05;;;23.50;95.80;;;;;;4887659;29;20084;-86
2023/05/14 12:02:01;;;;;;;13.18;7.70;;;23.40;94.10;;;;;;4886090;29;20059;-86
2023/05/14 12:04:36;;;;;;;14.43;7.57;;;23.50;94.60;;;;;;4882051;29;20135;-86
2023/05/14 12:07:14;;;;;;;12.50;7.03;;;23.60;94.30;;;;;;4882832;29;20053;-86
2023/05/14 12:09:49;;;;;;;10.32;6.40;;;23.90;94.60;;;;;;4891431;29;20466;-86
2023/05/14 12:12:35;;;;;;;11.35;7.30;;;24.30;94.60;;;;;;4888369;29;20049;-86
2023/05/14 12:15:12;;;;;;;13.95;7.10;;;24.40;94.20;;;;;;4890286;29;20040;-86
2023/05/14 12:17:38;;;;;;;11.02;5.90;;;24.60;94.60;;;;;;4888435;29;20544;-86
2023/05/14 12:20:09;;;;;;;13.02;5.85;;;24.80;95.20;;;;;;4880606;29;20051;-86
2023/05/14 12:22:44;;;;;;;10.75;5.70;;;25.00;95.20;;;;;;4904831;29;20488;-86
2023/05/14 12:25:14;;;;;;;10.57;5.55;;;25.20;93.10;;;;;;4899000;29;20036;-86
2023/05/14 12:27:40;;;;;;;10.85;5.70;;;25.30;94.70;;;;;;4898999;29;20045;-89
2023/05/14 12:30:40;;;;;;;11.43;5.50;;;25.50;93.40;;;;;;4889256;29;20091;-86
2023/05/14 12:33:26;;;;;;;11.27;4.78;;;25.20;91.40;;;;;;4882481;29;20425;-87
2023/05/14 12:35:53;;;;;;;8.80;4.00;;;24.90;91.40;;;;;;4886562;29;20052;-86
2023/05/14 12:38:25;;;;;;;9.50;3.92;;;24.90;92.20;;;;;;4888199;29;20041;-85
2023/05/14 12:40:50;;;;;;;11.82;5.10;;;24.90;91.20;;;;;;4886454;29;20049;-87
2023/05/14 12:43:19;;;;;;;8.85;5.03;;;25.00;92.20;;;;;;4887053;29;20041;-87
2023/05/14 12:45:57;;;;;;;10.50;4.82;;;25.10;92.20;;;;;;4889174;29;20048;-87
2023/05/14 12:48:28;;;;;;;9.25;4.18;;;25.00;91.70;;;;;;4890907;29;20045;-85
2023/05/14 12:50:57;;;;;;;9.43;5.05;;;25.10;91.90;;;;;;4888683;29;20091;-85
2023/05/14 12:53:23;;;;;;;10.35;4.85;;;24.90;90.90;;;;;;4884331;29;20101;-85
2023/05/14 12:56:07;;;;;;;8.82;4.85;;;24.70;91.50;;;;;;4886416;29;20048;-86
2023/05/14 12:58:33;;;;;;;10.65;4.75;;;24.90;91.70;;;;;;4885947;29;20045;-86
2023/05/14 13:01:02;;;;;;;9.35;4.80;;;25.00;92.00;;;;;;4886168;29;20044;-86
2023/05/14 13:03:27;;;;;;;10.90;5.70;;;25.10;91.70;;;;;;4892544;29;20044;-87
2023/05/14 13:06:02;;;;;;;9.27;4.22;;;24.70;91.50;;;;;;4888313;29;20505;-87
2023/05/14 13:08:34;;;;;;;10.25;4.40;;;24.70;89.60;;;;;;4886756;29;20497;-85
2023/05/14 13:11:18;;;;;;;9.32;4.38;;;24.60;90.80;;;;;;4882696;23;20061;-85
2023/05/14 13:13:47;;;;;;;10.35;4.40;;;24.80;90.70;;;;;;4873079;29;20041;-86
2023/05/14 13:16:19;;;;;;;9.35;4.28;;;24.60;90.90;;;;;;4881290;29;20132;-86
2023/05/14 13:19:03;;;;;;;8.80;4.13;;;24.60;90.60;;;;;;4870792;29;20049;-86
2023/05/14 13:21:32;;;;;;;8.73;4.35;;;24.50;90.30;;;;;;4885831;29;20049;-86
2023/05/14 13:24:04;;;;;;;9.25;4.38;;;24.60;91.10;;;;;;4870660;29;20053;-87
2023/05/14 13:26:30;;;;;;;9.27;4.55;;;24.50;91.10;;;;;;4883477;29;20079;-86
2023/05/14 13:28:56;;;;;;;9.60;4.30;;;24.50;91.20;;;;;;4871394;29;20077;-86
2023/05/14 13:31:21;;;;;;;8.85;3.65;;;24.40;90.80;;;;;;4867653;29;20081;-85
2023/05/14 13:33:58;;;;;;;9.57;4.03;;;24.40;90.40;;;;;;4867896;29;20053;-85
2023/05/14 13:36:23;;;;;;;10.27;3.70;;;24.50;89.30;;;;;;4866138;29;20482;-85
2023/05/14 13:38:49;;;;;;;13.18;4.28;;;24.30;88.90;;;;;;4865693;29;20098;-85
2023/05/14 13:41:15;;;;;;;10.50;4.13;;;24.20;88.30;;;;;;4867486;29;20044;-86
2023/05/14 13:43:47;;;;;;;9.52;4.30;;;24.10;88.50;;;;;;4884665;29;20045;-86
2023/05/14 13:46:22;;;;;;;12.57;4.30;;;24.00;87.00;;;;;;4879756;29;20046;-85
2023/05/14 13:49:03;;;;;;;9.70;4.30;;;23.90;87.80;;;;;;4867692;29;20061;-86
2023/05/14 13:51:44;;;;;;;9.30;4.00;;;23.90;88.20;;;;;;4865409;29;20040;-86
2023/05/14 13:54:12;;;;;;;9.43;4.63;;;23.70;87.70;;;;;;4866707;29;20038;-85
2023/05/14 13:56:41;;;;;;;9.82;4.30;;;24.20;89.90;;;;;;4879508;29;20050;-86
2023/05/14 13:59:15;;;;;;;8.93;4.30;;;23.80;90.00;;;;;;4867849;29;20398;-85
2023/05/14 14:02:32;;;;;;;10.40;4.70;;;23.80;90.20;;;;;;4876474;23;20506;-86
2023/05/14 14:05:56;;;;;;;9.68;4.03;;;23.80;89.00;;;;;;4869809;29;20063;-86
2023/05/14 14:09:24;;;;;;;8.38;4.20;;;23.70;89.00;;;;;;4869430;29;20503;-85
2023/05/14 14:12:41;;;;;;;8.85;4.05;;;23.90;89.40;;;;;;4870096;29;20128;-86
2023/05/14 14:15:36;;;;;;;9.88;4.50;;;23.70;90.00;;;;;;4864283;29;20109;-86
2023/05/14 14:18:01;;;;;;;9.73;4.57;;;24.00;90.00;;;;;;4869005;29;20045;-85
2023/05/14 14:20:43;;;;;;;9.18;4.70;;;23.90;90.00;;;;;;4871969;29;20060;-86
2023/05/14 14:23:08;;;;;;;9.32;4.80;;;24.00;89.60;;;;;;4868276;29;20045;-87
2023/05/14 14:25:46;;;;;;;10.75;4.75;;;23.90;89.30;;;;;;4881950;23;20056;-86
2023/05/14 14:28:12;;;;;;;10.55;5.15;;;23.80;87.90;;;;;;4874372;29;20500;-86
2023/05/14 14:30:38;;;;;;;11.52;4.72;;;23.80;89.70;;;;;;4874724;29;20132;-85
2023/05/14 14:33:12;;;;;;;8.90;4.45;;;23.70;89.40;;;;;;4877306;29;20092;-85
2023/05/14 14:35:38;;;;;;;9.32;4.43;;;24.10;88.60;;;;;;4877005;29;20041;-84
2023/05/14 14:38:04;;;;;;;8.90;4.45;;;23.50;88.50;;;;;;4874915;29;20902;-85
2023/05/14 14:43:39;;;;;;;9.00;4.53;;;24.20;89.00;;;;;;4887775;29;20045;-85
2023/05/14 14:46:20;;;;;;;9.75;4.72;;;23.10;87.30;;;;;;4874578;29;20037;-85
2023/05/14 14:48:52;;;;;;;9.65;4.80;;;23.00;87.20;;;;;;4876406;29;20098;-85
2023/05/14 14:51:18;;;;;;;9.48;4.82;;;22.90;86.60;;;;;;4876767;29;20045;-84
2023/05/14 14:53:44;;;;;;;9.15;4.45;;;23.00;87.80;;;;;;4891354;29;20096;-85
2023/05/14 14:56:11;;;;;;;9.52;4.78;;;22.90;87.60;;;;;;4877215;29;20081;-84
2023/05/14 14:58:44;;;;;;;8.82;4.38;;;23.00;87.60;;;;;;4876124;29;20061;-84
2023/05/14 15:01:14;;;;;;;8.73;4.47;;;23.20;86.80;;;;;;4873272;29;20489;-85
2023/05/14 15:03:39;;;;;;;9.25;4.13;;;23.10;87.40;;;;;;4875808;29;20045;-84